Weather at Bryansk Airport

Public forecast

Using degrees Celsius for public forecast. Weather courtesy of forecast.io.

Current aviation weather report (METAR) for Bryansk Airport

Retrieved 2021/04/19 05:00 UTC (18 minutes ago):

UUBP 190500Z 01003MPS 9999 BKN009 OVC///CB 06/04 Q1018 R34/CLRD70 NOSIG RMK QFE746/0994

Aviation forecast (TAF) for Bryansk Airport

Forecast is more than 12 hours old.

Retrieved 2010/09/15 10:45 UTC (11 years ago):

TAF TAF UUBP 151045Z 1512/1524 18005G10MPS 9999 SCT030